createdAt,value
2023-03-26T00:00:41.941Z,11.50
2023-03-26T00:03:08.732Z,11.50
2023-03-26T00:05:35.483Z,11.50
2023-03-26T00:08:02.274Z,11.50
2023-03-26T00:10:28.948Z,11.50
2023-03-26T00:12:55.690Z,11.40
2023-03-26T00:15:22.480Z,11.40
2023-03-26T00:17:49.287Z,11.30
2023-03-26T00:20:16.092Z,11.30
2023-03-26T00:22:42.956Z,11.20
2023-03-26T00:25:09.825Z,11.20
2023-03-26T00:27:36.604Z,11.20
2023-03-26T00:30:03.908Z,11.20
2023-03-26T00:32:30.825Z,11.20
2023-03-26T00:34:57.882Z,11.20
2023-03-26T00:37:24.754Z,11.20
2023-03-26T00:39:51.450Z,11.20
2023-03-26T00:42:18.141Z,11.20
2023-03-26T00:44:44.916Z,11.30
2023-03-26T00:47:11.696Z,11.30
2023-03-26T00:49:38.416Z,11.30
2023-03-26T00:52:05.727Z,11.30
2023-03-26T00:54:32.508Z,11.30
2023-03-26T00:56:59.249Z,11.20
2023-03-26T00:59:26.023Z,11.30
2023-03-26T01:01:52.842Z,11.30
2023-03-26T01:04:21.175Z,11.30
2023-03-26T01:06:47.996Z,11.30
2023-03-26T01:09:18.883Z,11.20
2023-03-26T01:11:45.690Z,11.20
2023-03-26T01:14:17.139Z,11.20
2023-03-26T01:16:54.351Z,11.30
2023-03-26T01:19:24.165Z,11.20
2023-03-26T01:21:50.871Z,11.30
2023-03-26T01:24:17.634Z,11.20
2023-03-26T01:27:17.161Z,11.30
2023-03-26T01:29:45.055Z,11.30
2023-03-26T01:32:26.934Z,11.30
2023-03-26T01:35:05.963Z,11.30
2023-03-26T01:37:46.268Z,11.30
2023-03-26T01:40:43.976Z,11.30
2023-03-26T01:43:51.577Z,11.30
2023-03-26T01:46:18.294Z,11.20
2023-03-26T01:48:45.756Z,11.20
2023-03-26T01:51:13.285Z,11.20
2023-03-26T01:53:44.869Z,11.20
2023-03-26T01:56:45.567Z,11.20
2023-03-26T01:59:24.622Z,11.20
2023-03-26T02:02:01.233Z,11.10
2023-03-26T02:04:40.004Z,11.10
2023-03-26T02:07:19.172Z,11.10
2023-03-26T02:09:49.001Z,11.20
2023-03-26T02:12:16.600Z,11.20
2023-03-26T02:14:46.522Z,11.20
2023-03-26T02:17:13.960Z,11.20
2023-03-26T02:19:40.634Z,11.20
2023-03-26T02:22:08.078Z,11.20
2023-03-26T02:24:34.787Z,11.20
2023-03-26T02:27:01.548Z,11.20
2023-03-26T02:29:28.291Z,11.10
2023-03-26T02:31:55.032Z,11.10
2023-03-26T02:34:21.801Z,11.10
2023-03-26T02:36:48.734Z,11.10
2023-03-26T02:39:17.747Z,11.10
2023-03-26T02:41:44.486Z,11.00
2023-03-26T02:44:11.180Z,11.00
2023-03-26T02:46:37.867Z,11.00
2023-03-26T02:49:04.630Z,11.00
2023-03-26T02:51:31.281Z,11.00
2023-03-26T02:53:57.992Z,11.10
2023-03-26T02:56:24.766Z,11.10
2023-03-26T02:58:51.513Z,11.10
2023-03-26T03:01:18.479Z,11.20
2023-03-26T03:03:45.699Z,11.20
2023-03-26T03:06:12.427Z,11.20
2023-03-26T03:08:39.135Z,11.10
2023-03-26T03:11:10.636Z,11.20
2023-03-26T03:13:37.387Z,11.20
2023-03-26T03:16:04.355Z,11.20
2023-03-26T03:18:31.053Z,11.20
2023-03-26T03:20:57.741Z,11.10
2023-03-26T03:23:24.554Z,11.10
2023-03-26T03:25:51.254Z,11.10
2023-03-26T03:28:18.446Z,11.10
2023-03-26T03:30:45.970Z,11.10
2023-03-26T03:33:12.795Z,11.10
2023-03-26T03:35:39.591Z,11.00
2023-03-26T03:38:06.291Z,11.00
2023-03-26T03:40:33.013Z,11.00
2023-03-26T03:42:59.756Z,10.90
2023-03-26T03:45:26.463Z,11.00
2023-03-26T03:47:53.302Z,10.90
2023-03-26T03:50:20.222Z,10.90
2023-03-26T03:52:46.948Z,10.90
2023-03-26T03:55:13.664Z,10.90
2023-03-26T03:57:40.344Z,10.80
2023-03-26T04:00:07.834Z,10.80
2023-03-26T04:02:35.102Z,10.70
2023-03-26T04:05:02.702Z,10.70
2023-03-26T04:07:29.856Z,10.70
2023-03-26T04:09:56.963Z,10.70
2023-03-26T04:12:23.793Z,10.70
2023-03-26T04:14:50.484Z,10.60
2023-03-26T04:17:17.210Z,10.60
2023-03-26T04:19:43.984Z,10.60
2023-03-26T04:22:10.705Z,10.60
2023-03-26T04:24:37.456Z,10.50
2023-03-26T04:27:04.938Z,10.50
2023-03-26T04:29:31.673Z,10.40
2023-03-26T04:31:58.452Z,10.40
2023-03-26T04:34:25.320Z,10.40
2023-03-26T04:36:52.457Z,10.40
2023-03-26T04:39:19.134Z,10.40
2023-03-26T04:41:45.805Z,10.40
2023-03-26T04:44:12.487Z,10.40
2023-03-26T04:46:39.199Z,10.40
2023-03-26T04:49:05.956Z,10.40
2023-03-26T04:51:39.121Z,10.40
2023-03-26T04:54:06.045Z,10.40
2023-03-26T04:56:35.598Z,10.40
2023-03-26T04:59:02.335Z,10.40
2023-03-26T05:01:29.088Z,10.50
2023-03-26T05:03:55.933Z,10.50
2023-03-26T05:06:22.764Z,10.50
2023-03-26T05:08:49.492Z,10.50
2023-03-26T05:11:16.258Z,10.50
2023-03-26T05:13:43.025Z,10.50
2023-03-26T05:16:10.906Z,10.50
2023-03-26T05:18:37.598Z,10.50
2023-03-26T05:21:04.496Z,10.50
2023-03-26T05:23:31.290Z,10.50
2023-03-26T05:25:58.069Z,10.40
2023-03-26T05:28:24.878Z,10.50
2023-03-26T05:30:52.713Z,10.50
2023-03-26T05:33:22.042Z,10.40
2023-03-26T05:35:58.391Z,10.40
2023-03-26T05:38:25.105Z,10.40
2023-03-26T05:40:51.868Z,10.40
2023-03-26T05:43:18.566Z,10.40
2023-03-26T05:45:47.812Z,10.40
2023-03-26T05:48:14.530Z,10.40
2023-03-26T05:50:41.249Z,10.30
2023-03-26T05:53:07.949Z,10.30
2023-03-26T05:55:34.770Z,10.30
2023-03-26T05:58:01.486Z,10.30
2023-03-26T06:00:28.162Z,10.30
2023-03-26T06:02:56.831Z,10.30
2023-03-26T06:05:23.935Z,10.30
2023-03-26T06:07:50.599Z,10.30
2023-03-26T06:10:18.308Z,10.30
2023-03-26T06:12:45.799Z,10.30
2023-03-26T06:15:12.545Z,10.20
2023-03-26T06:17:39.252Z,10.30
2023-03-26T06:20:08.715Z,10.30
2023-03-26T06:22:36.080Z,10.30
2023-03-26T06:25:02.802Z,10.30
2023-03-26T06:27:29.500Z,10.30
2023-03-26T06:29:56.189Z,10.30
2023-03-26T06:32:23.127Z,10.20
2023-03-26T06:34:49.866Z,10.20
2023-03-26T06:37:16.722Z,10.20
2023-03-26T06:39:43.489Z,10.20
2023-03-26T06:42:10.234Z,10.20
2023-03-26T06:44:37.132Z,10.20
2023-03-26T06:47:03.920Z,10.20
2023-03-26T06:49:30.654Z,10.20
2023-03-26T06:51:57.384Z,10.30
2023-03-26T06:54:24.113Z,10.20
2023-03-26T06:56:50.872Z,10.20
2023-03-26T06:59:17.596Z,10.20
2023-03-26T07:01:45.844Z,10.20
2023-03-26T07:04:13.542Z,10.20
2023-03-26T07:06:40.235Z,10.10
2023-03-26T07:09:06.949Z,10.10
2023-03-26T07:11:33.650Z,10.10
2023-03-26T07:14:00.392Z,10.10
2023-03-26T07:16:27.117Z,10.10
2023-03-26T07:18:53.902Z,10.10
2023-03-26T07:21:21.156Z,10.10
2023-03-26T07:23:48.407Z,10.10
2023-03-26T07:26:56.508Z,10.10
2023-03-26T07:29:38.235Z,10.10
2023-03-26T07:32:18.452Z,10.10
2023-03-26T07:35:02.138Z,10.10
2023-03-26T07:37:33.312Z,10.10
2023-03-26T07:40:28.949Z,10.10
2023-03-26T07:43:27.671Z,10.10
2023-03-26T07:45:55.824Z,10.10
2023-03-26T07:48:24.732Z,10.10
2023-03-26T07:50:52.415Z,10.20
2023-03-26T07:53:19.585Z,10.20
2023-03-26T07:55:53.716Z,10.20
2023-03-26T07:58:45.319Z,10.20
2023-03-26T08:01:32.016Z,10.20
2023-03-26T08:04:23.334Z,10.20
2023-03-26T08:06:56.415Z,10.20
2023-03-26T08:09:31.707Z,10.30
2023-03-26T08:12:30.427Z,10.20
2023-03-26T08:15:12.094Z,10.20
2023-03-26T08:17:54.435Z,10.20
2023-03-26T08:20:45.312Z,10.20
2023-03-26T08:23:26.852Z,10.20
2023-03-26T08:26:01.536Z,10.20
2023-03-26T08:28:57.692Z,10.20
2023-03-26T08:31:37.192Z,10.20
2023-03-26T08:34:04.005Z,10.20
2023-03-26T08:36:33.209Z,10.20
2023-03-26T08:38:59.925Z,10.30
2023-03-26T08:41:29.616Z,10.20
2023-03-26T08:44:11.526Z,10.20
2023-03-26T08:46:56.064Z,10.30
2023-03-26T08:49:49.870Z,10.30
2023-03-26T08:52:49.990Z,10.30
2023-03-26T08:55:49.696Z,10.20
2023-03-26T08:58:54.777Z,10.20
2023-03-26T09:01:46.995Z,10.20
2023-03-26T09:04:28.951Z,10.30
2023-03-26T09:07:33.248Z,10.30
2023-03-26T09:10:21.244Z,10.30
2023-03-26T09:13:08.945Z,10.40
2023-03-26T09:15:47.835Z,10.40
2023-03-26T09:18:53.420Z,10.50
2023-03-26T09:21:30.289Z,10.50
2023-03-26T09:24:37.589Z,10.60
2023-03-26T09:27:26.026Z,10.60
2023-03-26T09:30:21.447Z,10.60
2023-03-26T09:33:25.887Z,10.60
2023-03-26T09:35:54.406Z,10.70
2023-03-26T09:38:27.814Z,10.70
2023-03-26T09:41:03.034Z,10.70
2023-03-26T09:43:42.069Z,10.80
2023-03-26T09:46:36.881Z,10.80
2023-03-26T09:49:09.464Z,10.80
2023-03-26T09:52:03.516Z,10.80
2023-03-26T09:54:54.728Z,10.90
2023-03-26T09:57:25.221Z,11.00
2023-03-26T09:59:54.756Z,11.10
2023-03-26T10:02:46.355Z,11.20
2023-03-26T10:05:20.579Z,11.30
2023-03-26T10:07:56.484Z,11.30
2023-03-26T10:10:32.419Z,11.40
2023-03-26T10:13:28.868Z,11.40
2023-03-26T10:16:14.152Z,11.50
2023-03-26T10:19:13.661Z,11.50
2023-03-26T10:22:01.869Z,11.50
2023-03-26T10:24:50.239Z,11.50
2023-03-26T10:27:48.744Z,11.50
2023-03-26T10:30:53.162Z,11.50
2023-03-26T10:33:35.672Z,11.60
2023-03-26T10:36:28.215Z,11.60
2023-03-26T10:39:03.946Z,11.70
2023-03-26T10:42:07.804Z,11.60
2023-03-26T10:45:12.487Z,11.60
2023-03-26T10:47:57.079Z,11.70
2023-03-26T10:50:45.371Z,11.70
2023-03-26T10:53:33.723Z,11.70
2023-03-26T10:56:21.803Z,11.80
2023-03-26T10:58:49.569Z,11.80
2023-03-26T11:01:42.276Z,11.80
2023-03-26T11:04:18.038Z,11.90
2023-03-26T11:07:12.714Z,12.00
2023-03-26T11:09:51.052Z,12.00
2023-03-26T11:12:28.295Z,11.90
2023-03-26T11:15:01.891Z,11.90
2023-03-26T11:17:48.766Z,11.90
2023-03-26T11:20:36.610Z,12.00
2023-03-26T11:23:13.728Z,12.00
2023-03-26T11:25:55.606Z,12.10
2023-03-26T11:28:25.116Z,12.00
2023-03-26T11:31:21.353Z,12.00
2023-03-26T11:33:54.833Z,12.00
2023-03-26T11:36:31.549Z,12.10
2023-03-26T11:38:59.909Z,12.20
2023-03-26T11:41:28.126Z,12.40
2023-03-26T11:44:01.240Z,12.60
2023-03-26T11:46:28.022Z,13.00
2023-03-26T11:49:00.544Z,13.50
2023-03-26T11:51:32.004Z,13.90
2023-03-26T11:53:59.353Z,14.50
2023-03-26T11:56:29.258Z,14.90
2023-03-26T11:59:00.596Z,15.30
2023-03-26T12:01:29.805Z,15.50
2023-03-26T12:04:02.959Z,15.40
2023-03-26T12:06:29.777Z,15.10
2023-03-26T12:08:56.451Z,14.80
2023-03-26T12:11:28.562Z,14.60
2023-03-26T12:13:58.355Z,14.40
2023-03-26T12:16:25.166Z,14.20
2023-03-26T12:19:00.458Z,13.90
2023-03-26T12:21:27.159Z,13.70
2023-03-26T12:24:03.940Z,13.50
2023-03-26T12:26:36.510Z,13.20
2023-03-26T12:29:14.033Z,13.00
2023-03-26T12:31:42.292Z,12.70
2023-03-26T12:34:17.277Z,12.60
2023-03-26T12:36:56.733Z,12.60
2023-03-26T12:40:06.517Z,12.70
2023-03-26T12:44:47.301Z,12.70
2023-03-26T12:45:17.232Z,12.60
2023-03-26T12:47:57.825Z,12.50
2023-03-26T12:50:35.777Z,12.30
2023-03-26T12:53:13.998Z,12.20
2023-03-26T12:56:07.565Z,12.00
2023-03-26T12:58:46.356Z,11.80
2023-03-26T13:01:34.732Z,11.70
2023-03-26T13:04:10.624Z,11.60
2023-03-26T13:06:59.756Z,11.60
2023-03-26T13:09:31.970Z,11.60
2023-03-26T13:12:19.559Z,11.50
2023-03-26T13:14:49.409Z,11.50
2023-03-26T13:17:23.735Z,11.50
2023-03-26T13:20:17.216Z,11.40
2023-03-26T13:22:52.952Z,11.30
2023-03-26T13:25:41.360Z,11.30
2023-03-26T13:28:10.860Z,11.30
2023-03-26T13:31:03.990Z,11.40
2023-03-26T13:33:41.777Z,11.40
2023-03-26T13:36:37.271Z,11.40
2023-03-26T13:39:10.013Z,11.30
2023-03-26T13:42:18.011Z,11.20
2023-03-26T13:45:09.639Z,11.20
2023-03-26T13:47:38.378Z,11.10
2023-03-26T13:50:22.638Z,11.10
2023-03-26T13:52:49.301Z,11.10
2023-03-26T13:55:28.550Z,11.00
2023-03-26T13:58:10.663Z,11.00
2023-03-26T14:00:55.198Z,11.00
2023-03-26T14:03:43.888Z,11.10
2023-03-26T14:06:18.353Z,11.10
2023-03-26T14:08:47.068Z,11.20
2023-03-26T14:11:20.598Z,11.30
2023-03-26T14:13:58.170Z,11.40
2023-03-26T14:16:36.908Z,11.50
2023-03-26T14:19:21.717Z,11.40
2023-03-26T14:22:00.745Z,11.40
2023-03-26T14:25:12.592Z,11.40
2023-03-26T14:28:31.197Z,11.30
2023-03-26T14:31:18.308Z,11.20
2023-03-26T14:33:47.789Z,11.20
2023-03-26T14:36:29.196Z,11.20
2023-03-26T14:39:37.232Z,11.20
2023-03-26T14:42:38.477Z,11.20
2023-03-26T14:45:11.492Z,11.30
2023-03-26T14:47:43.792Z,11.20
2023-03-26T14:50:10.507Z,11.20
2023-03-26T14:52:47.069Z,11.20
2023-03-26T14:55:41.702Z,11.20
2023-03-26T14:59:02.217Z,11.20
2023-03-26T15:01:49.247Z,11.20
2023-03-26T15:04:43.525Z,11.10
2023-03-26T15:07:22.095Z,11.10
2023-03-26T15:10:26.424Z,11.00
2023-03-26T15:13:13.063Z,11.00
2023-03-26T15:16:25.113Z,11.00
2023-03-26T15:19:08.893Z,11.00
2023-03-26T15:21:49.455Z,11.00
2023-03-26T15:24:16.225Z,10.90
2023-03-26T15:27:17.770Z,10.90
2023-03-26T15:30:12.086Z,11.00
2023-03-26T15:32:38.801Z,11.00
2023-03-26T15:35:15.208Z,11.00
2023-03-26T15:38:12.637Z,11.00
2023-03-26T15:40:45.273Z,11.00
2023-03-26T15:43:12.758Z,10.90
2023-03-26T15:45:46.306Z,10.90
2023-03-26T15:48:13.164Z,10.80
2023-03-26T15:50:53.030Z,10.80
2023-03-26T15:53:31.877Z,10.70
2023-03-26T15:56:00.535Z,10.70
2023-03-26T15:58:45.678Z,10.70
2023-03-26T16:01:32.569Z,10.70
2023-03-26T16:04:18.357Z,10.80
2023-03-26T16:06:57.334Z,10.90
2023-03-26T16:09:36.406Z,10.80
2023-03-26T16:12:12.128Z,10.80
2023-03-26T16:14:43.259Z,10.80
2023-03-26T16:17:16.466Z,10.80
2023-03-26T16:20:20.665Z,10.70
2023-03-26T16:22:53.317Z,10.60
2023-03-26T16:25:29.359Z,10.60
2023-03-26T16:28:35.413Z,10.60
2023-03-26T16:31:10.666Z,10.50
2023-03-26T16:34:06.933Z,10.50
2023-03-26T16:36:43.071Z,10.50
2023-03-26T16:39:22.819Z,10.50
2023-03-26T16:42:06.325Z,10.50
2023-03-26T16:44:36.584Z,10.50
2023-03-26T16:47:25.256Z,10.50
2023-03-26T16:50:08.853Z,10.50
2023-03-26T16:52:47.618Z,10.40
2023-03-26T16:55:20.583Z,10.40
2023-03-26T16:58:16.350Z,10.30
2023-03-26T17:01:09.446Z,10.20
2023-03-26T17:03:58.887Z,10.20
2023-03-26T17:06:46.860Z,10.20
2023-03-26T17:09:21.315Z,10.20
2023-03-26T17:11:56.870Z,10.10
2023-03-26T17:14:29.349Z,10.20
2023-03-26T17:17:09.982Z,10.20
2023-03-26T17:19:54.835Z,10.20
2023-03-26T17:22:33.596Z,10.10
2023-03-26T17:25:18.907Z,10.10
2023-03-26T17:28:22.571Z,10.10
2023-03-26T17:31:03.813Z,10.10
2023-03-26T17:33:35.286Z,10.00
2023-03-26T17:36:11.407Z,10.00
2023-03-26T17:38:38.178Z,10.10
2023-03-26T17:41:05.601Z,10.10
2023-03-26T17:43:43.440Z,10.10
2023-03-26T17:46:22.496Z,10.10
2023-03-26T17:49:12.220Z,10.00
2023-03-26T17:51:59.248Z,10.10
2023-03-26T17:54:41.159Z,10.10
2023-03-26T17:57:32.319Z,10.00
2023-03-26T17:59:59.463Z,10.00
2023-03-26T18:02:35.715Z,9.90
2023-03-26T18:05:04.088Z,9.90
2023-03-26T18:08:04.701Z,9.90
2023-03-26T18:10:31.378Z,9.80
2023-03-26T18:13:34.876Z,9.80
2023-03-26T18:16:11.226Z,9.80
2023-03-26T18:18:45.602Z,9.80
2023-03-26T18:21:17.062Z,9.70
2023-03-26T18:23:47.449Z,9.70
2023-03-26T18:26:16.050Z,9.70
2023-03-26T18:28:44.286Z,9.80
2023-03-26T18:31:25.087Z,9.80
2023-03-26T18:33:55.506Z,9.80
2023-03-26T18:36:22.205Z,9.70
2023-03-26T18:38:49.029Z,9.70
2023-03-26T18:41:25.302Z,9.70
2023-03-26T18:43:52.008Z,9.70
2023-03-26T18:46:18.749Z,9.70
2023-03-26T18:48:46.141Z,9.70
2023-03-26T18:51:15.966Z,9.70
2023-03-26T18:53:54.278Z,9.60
2023-03-26T18:56:32.700Z,9.60
2023-03-26T18:59:00.094Z,9.50
2023-03-26T19:01:27.816Z,9.50
2023-03-26T19:03:54.661Z,9.50
2023-03-26T19:06:21.426Z,9.50
2023-03-26T19:08:48.150Z,9.50
2023-03-26T19:11:16.437Z,9.50
2023-03-26T19:13:43.295Z,9.50
2023-03-26T19:16:26.073Z,9.50
2023-03-26T19:18:52.967Z,9.40
2023-03-26T19:21:20.390Z,9.40
2023-03-26T19:23:47.111Z,9.40
2023-03-26T19:26:13.939Z,9.40
2023-03-26T19:28:44.120Z,9.40
2023-03-26T19:31:26.990Z,9.30
2023-03-26T19:33:55.220Z,9.40
2023-03-26T19:36:24.395Z,9.30
2023-03-26T19:38:52.297Z,9.30
2023-03-26T19:41:23.912Z,9.30
2023-03-26T19:43:51.799Z,9.30
2023-03-26T19:46:22.846Z,9.30
2023-03-26T19:48:51.580Z,9.30
2023-03-26T19:51:19.397Z,9.30
2023-03-26T19:53:52.322Z,9.30
2023-03-26T19:56:19.123Z,9.30
2023-03-26T19:58:45.834Z,9.30
2023-03-26T20:01:23.414Z,9.30
2023-03-26T20:03:58.111Z,9.30
2023-03-26T20:06:33.881Z,9.30
2023-03-26T20:09:01.246Z,9.30
2023-03-26T20:11:35.965Z,9.20
2023-03-26T20:14:04.743Z,9.20
2023-03-26T20:16:32.424Z,9.20
2023-03-26T20:18:59.299Z,9.10
2023-03-26T20:21:26.034Z,9.20
2023-03-26T20:23:52.952Z,9.10
2023-03-26T20:26:19.821Z,9.10
2023-03-26T20:28:48.663Z,9.10
2023-03-26T20:31:24.043Z,9.10
2023-03-26T20:33:51.353Z,9.00
2023-03-26T20:36:34.426Z,8.90
2023-03-26T20:39:05.134Z,8.90
2023-03-26T20:41:31.851Z,8.80
2023-03-26T20:43:58.516Z,8.60
2023-03-26T20:46:30.939Z,8.60
2023-03-26T20:48:58.954Z,8.50
2023-03-26T20:51:25.794Z,8.50
2023-03-26T20:53:52.549Z,8.50
2023-03-26T20:56:19.715Z,8.40
2023-03-26T20:58:49.083Z,8.40
2023-03-26T21:01:17.340Z,8.40
2023-03-26T21:03:44.076Z,8.40
2023-03-26T21:06:11.853Z,8.40
2023-03-26T21:08:39.163Z,8.50
2023-03-26T21:11:29.923Z,8.50
2023-03-26T21:14:15.534Z,8.50
2023-03-26T21:16:42.701Z,8.50
2023-03-26T21:19:09.948Z,8.50
2023-03-26T21:21:55.462Z,8.50
2023-03-26T21:24:22.182Z,8.60
2023-03-26T21:27:06.944Z,8.50
2023-03-26T21:29:33.850Z,8.60
2023-03-26T21:32:00.965Z,8.50
2023-03-26T21:34:27.957Z,8.50
2023-03-26T21:36:55.041Z,8.60
2023-03-26T21:39:21.978Z,8.50
2023-03-26T21:42:04.909Z,8.60
2023-03-26T21:44:33.294Z,8.60
2023-03-26T21:47:00.308Z,8.60
2023-03-26T21:49:27.684Z,8.60
2023-03-26T21:51:54.768Z,8.60
2023-03-26T21:54:26.009Z,8.60
2023-03-26T21:57:17.940Z,8.60
2023-03-26T22:00:04.998Z,8.60
2023-03-26T22:02:35.021Z,8.50
2023-03-26T22:05:15.448Z,8.60
2023-03-26T22:07:55.015Z,8.60
2023-03-26T22:10:22.020Z,8.60
2023-03-26T22:12:49.065Z,8.60
2023-03-26T22:15:15.806Z,8.50
2023-03-26T22:17:42.575Z,8.60
2023-03-26T22:20:10.647Z,8.60
2023-03-26T22:22:37.325Z,8.60
2023-03-26T22:25:04.207Z,8.60
2023-03-26T22:27:30.931Z,8.60
2023-03-26T22:29:57.631Z,8.60
2023-03-26T22:32:24.398Z,8.60
2023-03-26T22:34:51.177Z,8.60
2023-03-26T22:37:17.853Z,8.60
2023-03-26T22:39:44.551Z,8.60
2023-03-26T22:42:11.447Z,8.60
2023-03-26T22:44:38.158Z,8.60
2023-03-26T22:47:04.851Z,8.60
2023-03-26T22:49:31.775Z,8.60
2023-03-26T22:51:58.472Z,8.60
2023-03-26T22:54:25.174Z,8.60
2023-03-26T22:56:51.908Z,8.60
2023-03-26T22:59:18.788Z,8.60
2023-03-26T23:01:45.597Z,8.60
2023-03-26T23:04:12.471Z,8.60
2023-03-26T23:06:57.778Z,8.60
2023-03-26T23:09:24.580Z,8.50
2023-03-26T23:11:51.249Z,8.50
2023-03-26T23:14:18.034Z,8.50
2023-03-26T23:16:44.793Z,8.50
2023-03-26T23:19:11.779Z,8.50
2023-03-26T23:21:38.666Z,8.50
2023-03-26T23:24:05.838Z,8.50
2023-03-26T23:26:37.743Z,8.50
2023-03-26T23:29:10.982Z,8.50
2023-03-26T23:31:37.742Z,8.50
2023-03-26T23:34:04.469Z,8.50
2023-03-26T23:36:31.166Z,8.50
2023-03-26T23:38:57.912Z,8.40
2023-03-26T23:41:24.597Z,8.40
2023-03-26T23:43:53.971Z,8.40
2023-03-26T23:46:26.003Z,8.40
2023-03-26T23:48:53.013Z,8.40
2023-03-26T23:51:22.970Z,8.40
2023-03-26T23:53:49.863Z,8.40
2023-03-26T23:56:16.903Z,8.40
2023-03-26T23:58:43.633Z,8.40
